sensor_id;sensor_type;location;lat;lon;timestamp;pressure;altitude;pressure_sealevel;temperature;humidity
11830;BME280;5972;42.134;24.718;2022-09-09T00:00:22;99797.59;;;20.19;100.00
11830;BME280;5972;42.134;24.718;2022-09-09T00:02:55;99806.59;;;20.23;100.00
11830;BME280;5972;42.134;24.718;2022-09-09T00:05:29;99814.91;;;20.16;100.00
11830;BME280;5972;42.134;24.718;2022-09-09T00:08:00;99804.28;;;20.18;100.00
11830;BME280;5972;42.134;24.718;2022-09-09T00:10:32;99802.78;;;20.07;100.00
11830;BME280;5972;42.134;24.718;2022-09-09T00:13:08;99811.00;;;20.07;100.00
11830;BME280;5972;42.134;24.718;2022-09-09T00:15:52;99807.50;;;20.03;100.00
11830;BME280;5972;42.134;24.718;2022-09-09T00:18:25;99806.38;;;19.89;100.00
11830;BME280;5972;42.134;24.718;2022-09-09T00:20:58;99797.38;;;19.85;100.00
11830;BME280;5972;42.134;24.718;2022-09-09T00:23:31;99808.38;;;19.85;100.00
11830;BME280;5972;42.134;24.718;2022-09-09T00:26:06;99801.34;;;19.81;100.00
11830;BME280;5972;42.134;24.718;2022-09-09T00:28:40;99804.09;;;19.74;100.00
11830;BME280;5972;42.134;24.718;2022-09-09T00:31:13;99795.16;;;19.59;100.00
11830;BME280;5972;42.134;24.718;2022-09-09T00:33:40;99817.06;;;19.70;100.00
11830;BME280;5972;42.134;24.718;2022-09-09T00:36:13;99825.31;;;19.70;100.00
11830;BME280;5972;42.134;24.718;2022-09-09T00:38:43;99811.22;;;19.61;100.00
11830;BME280;5972;42.134;24.718;2022-09-09T00:41:18;99817.88;;;19.67;100.00
11830;BME280;5972;42.134;24.718;2022-09-09T00:43:56;99818.66;;;19.64;100.00
11830;BME280;5972;42.134;24.718;2022-09-09T00:46:44;99813.56;;;19.66;100.00
11830;BME280;5972;42.134;24.718;2022-09-09T00:49:20;99797.13;;;19.48;100.00
11830;BME280;5972;42.134;24.718;2022-09-09T00:51:56;99817.50;;;19.54;100.00
11830;BME280;5972;42.134;24.718;2022-09-09T00:54:35;99811.25;;;19.36;100.00
11830;BME280;5972;42.134;24.718;2022-09-09T00:57:13;99805.38;;;19.34;100.00
11830;BME280;5972;42.134;24.718;2022-09-09T00:59:46;99821.84;;;19.44;100.00
11830;BME280;5972;42.134;24.718;2022-09-09T01:02:25;99825.38;;;19.38;100.00
11830;BME280;5972;42.134;24.718;2022-09-09T01:04:53;99819.47;;;19.36;100.00
11830;BME280;5972;42.134;24.718;2022-09-09T01:07:21;99823.00;;;19.36;100.00
11830;BME280;5972;42.134;24.718;2022-09-09T01:09:54;99824.56;;;19.41;100.00
11830;BME280;5972;42.134;24.718;2022-09-09T01:12:29;99823.41;;;19.35;100.00
11830;BME280;5972;42.134;24.718;2022-09-09T01:15:08;99809.31;;;19.26;100.00
11830;BME280;5972;42.134;24.718;2022-09-09T01:17:46;99822.66;;;19.27;100.00
11830;BME280;5972;42.134;24.718;2022-09-09T01:20:19;99819.13;;;19.16;100.00
11830;BME280;5972;42.134;24.718;2022-09-09T01:22:57;99816.41;;;19.16;100.00
11830;BME280;5972;42.134;24.718;2022-09-09T01:28:21;99801.50;;;19.06;100.00
11830;BME280;5972;42.134;24.718;2022-09-09T01:30:49;99813.66;;;19.09;100.00
11830;BME280;5972;42.134;24.718;2022-09-09T01:33:17;99825.00;;;19.18;100.00
11830;BME280;5972;42.134;24.718;2022-09-09T01:35:48;99825.78;;;19.19;100.00
11830;BME280;5972;42.134;24.718;2022-09-09T01:38:17;99805.41;;;19.13;100.00
11830;BME280;5972;42.134;24.718;2022-09-09T01:40:45;99812.47;;;19.10;100.00
11830;BME280;5972;42.134;24.718;2022-09-09T01:43:12;99811.31;;;19.11;100.00
11830;BME280;5972;42.134;24.718;2022-09-09T01:45:41;99814.81;;;19.15;100.00
11830;BME280;5972;42.134;24.718;2022-09-09T01:48:09;99817.16;;;19.20;100.00
11830;BME280;5972;42.134;24.718;2022-09-09T01:50:36;99810.50;;;19.07;100.00
11830;BME280;5972;42.134;24.718;2022-09-09T01:53:03;99796.81;;;19.00;100.00
11830;BME280;5972;42.134;24.718;2022-09-09T01:55:32;99811.28;;;19.07;100.00
11830;BME280;5972;42.134;24.718;2022-09-09T01:58:17;99821.50;;;19.10;100.00
11830;BME280;5972;42.134;24.718;2022-09-09T02:00:58;99821.47;;;19.18;100.00
11830;BME280;5972;42.134;24.718;2022-09-09T02:03:29;99820.28;;;19.19;100.00
11830;BME280;5972;42.134;24.718;2022-09-09T02:06:08;99807.38;;;19.12;100.00
11830;BME280;5972;42.134;24.718;2022-09-09T02:08:44;99816.38;;;19.13;100.00
11830;BME280;5972;42.134;24.718;2022-09-09T02:11:14;99818.34;;;19.16;100.00
11830;BME280;5972;42.134;24.718;2022-09-09T02:13:43;99822.66;;;19.17;100.00
11830;BME280;5972;42.134;24.718;2022-09-09T02:16:16;99783.91;;;18.86;100.00
11830;BME280;5972;42.134;24.718;2022-09-09T02:18:49;99813.28;;;19.00;100.00
11830;BME280;5972;42.134;24.718;2022-09-09T02:21:19;99803.09;;;18.93;100.00
11830;BME280;5972;42.134;24.718;2022-09-09T02:23:47;99804.25;;;18.96;100.00
11830;BME280;5972;42.134;24.718;2022-09-09T02:26:19;99798.00;;;18.92;100.00
11830;BME280;5972;42.134;24.718;2022-09-09T02:28:48;99802.69;;;18.95;100.00
11830;BME280;5972;42.134;24.718;2022-09-09T02:31:19;99807.78;;;18.93;100.00
11830;BME280;5972;42.134;24.718;2022-09-09T02:33:51;99805.06;;;18.82;100.00
11830;BME280;5972;42.134;24.718;2022-09-09T02:36:19;99801.91;;;18.77;100.00
11830;BME280;5972;42.134;24.718;2022-09-09T02:38:48;99810.13;;;18.69;100.00
11830;BME280;5972;42.134;24.718;2022-09-09T02:41:20;99790.16;;;18.55;100.00
11830;BME280;5972;42.134;24.718;2022-09-09T02:43:48;99808.16;;;18.74;100.00
11830;BME280;5972;42.134;24.718;2022-09-09T02:46:27;99809.34;;;18.76;100.00
11830;BME280;5972;42.134;24.718;2022-09-09T02:49:00;99813.28;;;18.72;100.00
11830;BME280;5972;42.134;24.718;2022-09-09T02:51:35;99820.72;;;18.75;100.00
11830;BME280;5972;42.134;24.718;2022-09-09T02:54:12;99818.75;;;18.75;100.00
11830;BME280;5972;42.134;24.718;2022-09-09T02:56:47;99810.53;;;18.75;100.00
11830;BME280;5972;42.134;24.718;2022-09-09T02:59:16;99821.09;;;18.77;100.00
11830;BME280;5972;42.134;24.718;2022-09-09T03:01:44;99824.63;;;18.77;100.00
11830;BME280;5972;42.134;24.718;2022-09-09T03:04:12;99830.50;;;18.79;100.00
11830;BME280;5972;42.134;24.718;2022-09-09T03:06:39;99832.84;;;18.81;100.00
11830;BME280;5972;42.134;24.718;2022-09-09T03:09:06;99825.41;;;18.78;100.00
11830;BME280;5972;42.134;24.718;2022-09-09T03:11:35;99815.22;;;18.71;100.00
11830;BME280;5972;42.134;24.718;2022-09-09T03:14:03;99821.50;;;18.64;100.00
11830;BME280;5972;42.134;24.718;2022-09-09T03:16:31;99803.06;;;18.58;100.00
11830;BME280;5972;42.134;24.718;2022-09-09T03:19:00;99815.59;;;18.62;100.00
11830;BME280;5972;42.134;24.718;2022-09-09T03:21:27;99831.66;;;18.60;100.00
11830;BME280;5972;42.134;24.718;2022-09-09T03:23:53;99837.94;;;18.68;100.00
11830;BME280;5972;42.134;24.718;2022-09-09T03:26:21;99836.34;;;18.67;100.00
11830;BME280;5972;42.134;24.718;2022-09-09T03:28:48;99841.84;;;18.67;100.00
11830;BME280;5972;42.134;24.718;2022-09-09T03:31:17;99842.25;;;18.65;100.00
11830;BME280;5972;42.134;24.718;2022-09-09T03:33:44;99838.28;;;18.56;100.00
11830;BME280;5972;42.134;24.718;2022-09-09T03:36:13;99852.41;;;18.68;100.00
11830;BME280;5972;42.134;24.718;2022-09-09T03:38:40;99849.66;;;18.58;100.00
11830;BME280;5972;42.134;24.718;2022-09-09T03:41:07;99853.59;;;18.60;100.00
11830;BME280;5972;42.134;24.718;2022-09-09T03:43:34;99850.44;;;18.62;100.00
11830;BME280;5972;42.134;24.718;2022-09-09T03:46:02;99858.69;;;18.58;100.00
11830;BME280;5972;42.134;24.718;2022-09-09T03:48:28;99850.03;;;18.56;100.00
11830;BME280;5972;42.134;24.718;2022-09-09T03:50:56;99844.56;;;18.56;100.00
11830;BME280;5972;42.134;24.718;2022-09-09T03:53:28;99848.50;;;18.55;100.00
11830;BME280;5972;42.134;24.718;2022-09-09T03:55:56;99845.69;;;18.45;100.00
11830;BME280;5972;42.134;24.718;2022-09-09T03:58:25;99851.94;;;18.42;100.00
11830;BME280;5972;42.134;24.718;2022-09-09T04:00:54;99845.69;;;18.38;100.00
11830;BME280;5972;42.134;24.718;2022-09-09T04:03:22;99847.66;;;18.37;100.00
11830;BME280;5972;42.134;24.718;2022-09-09T04:05:50;99838.63;;;18.29;100.00
11830;BME280;5972;42.134;24.718;2022-09-09T04:08:18;99849.22;;;18.38;100.00
11830;BME280;5972;42.134;24.718;2022-09-09T04:10:47;99845.69;;;18.45;100.00
11830;BME280;5972;42.134;24.718;2022-09-09T04:13:14;99840.22;;;18.48;100.00
11830;BME280;5972;42.134;24.718;2022-09-09T04:15:43;99842.97;;;18.52;100.00
11830;BME280;5972;42.134;24.718;2022-09-09T04:18:11;99842.63;;;18.60;100.00
11830;BME280;5972;42.134;24.718;2022-09-09T04:20:38;99849.31;;;18.66;100.00
11830;BME280;5972;42.134;24.718;2022-09-09T04:23:05;99825.00;;;18.65;100.00
11830;BME280;5972;42.134;24.718;2022-09-09T04:25:32;99831.66;;;18.78;100.00
11830;BME280;5972;42.134;24.718;2022-09-09T04:28:01;99829.72;;;18.89;100.00
11830;BME280;5972;42.134;24.718;2022-09-09T04:30:28;99816.03;;;18.82;100.00
11830;BME280;5972;42.134;24.718;2022-09-09T04:32:56;99846.16;;;19.18;100.00
11830;BME280;5972;42.134;24.718;2022-09-09T04:35:23;99851.22;;;19.44;100.00
11830;BME280;5972;42.134;24.718;2022-09-09T04:37:50;99853.56;;;19.63;100.00
11830;BME280;5972;42.134;24.718;2022-09-09T04:40:17;99855.06;;;19.82;100.00
11830;BME280;5972;42.134;24.718;2022-09-09T04:42:44;99855.41;;;19.98;100.00
11830;BME280;5972;42.134;24.718;2022-09-09T04:45:14;99847.94;;;20.06;100.00
11830;BME280;5972;42.134;24.718;2022-09-09T04:47:41;99872.50;;;20.41;100.00
11830;BME280;5972;42.134;24.718;2022-09-09T04:50:09;99864.91;;;20.63;100.00
11830;BME280;5972;42.134;24.718;2022-09-09T04:52:35;99869.06;;;20.85;100.00
11830;BME280;5972;42.134;24.718;2022-09-09T04:55:03;99866.50;;;21.15;100.00
11830;BME280;5972;42.134;24.718;2022-09-09T04:57:30;99868.22;;;21.43;100.00
11830;BME280;5972;42.134;24.718;2022-09-09T04:59:58;99887.72;;;21.60;100.00
11830;BME280;5972;42.134;24.718;2022-09-09T05:02:26;99881.84;;;21.95;100.00
11830;BME280;5972;42.134;24.718;2022-09-09T05:04:53;99879.81;;;22.33;100.00
11830;BME280;5972;42.134;24.718;2022-09-09T05:07:20;99879.28;;;22.72;100.00
11830;BME280;5972;42.134;24.718;2022-09-09T05:09:47;99868.91;;;23.92;92.40
11830;BME280;5972;42.134;24.718;2022-09-09T05:12:14;99882.56;;;25.40;76.32
11830;BME280;5972;42.134;24.718;2022-09-09T05:14:42;99887.94;;;27.09;62.69
11830;BME280;5972;42.134;24.718;2022-09-09T05:17:09;99882.50;;;28.31;54.69
11830;BME280;5972;42.134;24.718;2022-09-09T05:19:37;99877.59;;;29.24;48.55
11830;BME280;5972;42.134;24.718;2022-09-09T05:22:04;99877.16;;;29.71;46.30
11830;BME280;5972;42.134;24.718;2022-09-09T05:24:31;99879.28;;;30.22;44.16
11830;BME280;5972;42.134;24.718;2022-09-09T05:26:58;99877.00;;;30.62;42.90
11830;BME280;5972;42.134;24.718;2022-09-09T05:29:27;99871.91;;;31.17;41.47
11830;BME280;5972;42.134;24.718;2022-09-09T05:31:54;99871.06;;;31.50;40.38
11830;BME280;5972;42.134;24.718;2022-09-09T05:34:21;99878.19;;;32.63;37.75
11830;BME280;5972;42.134;24.718;2022-09-09T05:36:49;99875.69;;;32.65;37.18
11830;BME280;5972;42.134;24.718;2022-09-09T05:39:17;99890.19;;;33.33;36.02
11830;BME280;5972;42.134;24.718;2022-09-09T05:41:44;99883.69;;;33.21;35.47
11830;BME280;5972;42.134;24.718;2022-09-09T05:44:11;99885.22;;;33.42;35.41
11830;BME280;5972;42.134;24.718;2022-09-09T05:46:38;99883.34;;;34.06;34.00
11830;BME280;5972;42.134;24.718;2022-09-09T05:49:05;99866.72;;;34.59;32.71
11830;BME280;5972;42.134;24.718;2022-09-09T05:51:33;99880.19;;;34.81;32.05
11830;BME280;5972;42.134;24.718;2022-09-09T05:54:02;99878.19;;;35.41;31.53
11830;BME280;5972;42.134;24.718;2022-09-09T05:56:29;99880.66;;;35.76;30.49
11830;BME280;5972;42.134;24.718;2022-09-09T05:58:56;99876.31;;;35.97;30.14
11830;BME280;5972;42.134;24.718;2022-09-09T06:01:24;99887.97;;;35.57;30.80
11830;BME280;5972;42.134;24.718;2022-09-09T06:03:52;99881.50;;;36.15;29.97
11830;BME280;5972;42.134;24.718;2022-09-09T06:06:20;99873.28;;;36.34;29.72
11830;BME280;5972;42.134;24.718;2022-09-09T06:08:50;99858.19;;;36.15;29.72
11830;BME280;5972;42.134;24.718;2022-09-09T06:11:20;99856.63;;;36.47;29.38
11830;BME280;5972;42.134;24.718;2022-09-09T06:13:47;99868.94;;;36.55;29.35
11830;BME280;5972;42.134;24.718;2022-09-09T06:16:19;99871.25;;;36.29;29.82
11830;BME280;5972;42.134;24.718;2022-09-09T06:18:48;99851.50;;;36.57;29.36
11830;BME280;5972;42.134;24.718;2022-09-09T06:21:17;99860.63;;;37.02;28.57
11830;BME280;5972;42.134;24.718;2022-09-09T06:23:44;99865.03;;;36.92;28.88
11830;BME280;5972;42.134;24.718;2022-09-09T06:26:14;99858.50;;;37.30;28.70
11830;BME280;5972;42.134;24.718;2022-09-09T06:28:44;99847.03;;;37.17;28.34
11830;BME280;5972;42.134;24.718;2022-09-09T06:31:12;99851.13;;;37.22;28.42
11830;BME280;5972;42.134;24.718;2022-09-09T06:33:41;99865.09;;;36.53;28.84
11830;BME280;5972;42.134;24.718;2022-09-09T06:36:11;99874.81;;;34.83;31.46
11830;BME280;5972;42.134;24.718;2022-09-09T06:38:39;99877.75;;;34.06;32.17
11830;BME280;5972;42.134;24.718;2022-09-09T06:41:10;99856.06;;;34.06;32.53
11830;BME280;5972;42.134;24.718;2022-09-09T06:43:38;99870.47;;;35.25;31.27
11830;BME280;5972;42.134;24.718;2022-09-09T06:46:14;99869.19;;;36.18;29.47
11830;BME280;5972;42.134;24.718;2022-09-09T06:48:42;99874.06;;;36.51;29.25
11830;BME280;5972;42.134;24.718;2022-09-09T06:51:11;99872.97;;;35.82;29.67
11830;BME280;5972;42.134;24.718;2022-09-09T06:53:40;99876.44;;;34.58;31.68
11830;BME280;5972;42.134;24.718;2022-09-09T06:56:18;99876.28;;;33.44;33.18
11830;BME280;5972;42.134;24.718;2022-09-09T06:58:46;99878.25;;;32.83;34.02
11830;BME280;5972;42.134;24.718;2022-09-09T07:01:16;99884.25;;;32.26;35.25
11830;BME280;5972;42.134;24.718;2022-09-09T07:03:46;99868.34;;;31.94;36.23
11830;BME280;5972;42.134;24.718;2022-09-09T07:06:15;99865.25;;;31.77;36.66
11830;BME280;5972;42.134;24.718;2022-09-09T07:08:43;99862.97;;;31.90;36.41
11830;BME280;5972;42.134;24.718;2022-09-09T07:11:10;99870.56;;;31.90;36.47
11830;BME280;5972;42.134;24.718;2022-09-09T07:13:37;99865.19;;;32.01;36.57
11830;BME280;5972;42.134;24.718;2022-09-09T07:16:05;99826.75;;;31.72;36.42
11830;BME280;5972;42.134;24.718;2022-09-09T07:18:34;99863.09;;;32.25;36.22
11830;BME280;5972;42.134;24.718;2022-09-09T07:21:01;99869.06;;;32.47;35.79
11830;BME280;5972;42.134;24.718;2022-09-09T07:23:29;99855.41;;;32.55;35.05
11830;BME280;5972;42.134;24.718;2022-09-09T07:25:56;99867.03;;;32.48;35.80
11830;BME280;5972;42.134;24.718;2022-09-09T07:28:23;99866.81;;;32.66;35.53
11830;BME280;5972;42.134;24.718;2022-09-09T07:30:55;99868.19;;;32.91;34.70
11830;BME280;5972;42.134;24.718;2022-09-09T07:33:22;99862.25;;;33.04;34.42
11830;BME280;5972;42.134;24.718;2022-09-09T07:35:51;99867.97;;;33.29;34.03
11830;BME280;5972;42.134;24.718;2022-09-09T07:38:19;99863.56;;;33.43;33.40
11830;BME280;5972;42.134;24.718;2022-09-09T07:40:46;99856.59;;;33.85;32.52
11830;BME280;5972;42.134;24.718;2022-09-09T07:43:13;99860.16;;;34.11;32.54
11830;BME280;5972;42.134;24.718;2022-09-09T07:45:44;99860.31;;;34.53;31.85
11830;BME280;5972;42.134;24.718;2022-09-09T07:48:11;99851.44;;;35.09;30.79
11830;BME280;5972;42.134;24.718;2022-09-09T07:50:38;99846.78;;;35.54;30.06
11830;BME280;5972;42.134;24.718;2022-09-09T07:53:06;99851.22;;;35.77;29.11
11830;BME280;5972;42.134;24.718;2022-09-09T07:55:33;99853.03;;;36.08;29.25
11830;BME280;5972;42.134;24.718;2022-09-09T07:57:59;99848.16;;;36.70;28.72
11830;BME280;5972;42.134;24.718;2022-09-09T08:00:26;99852.47;;;36.98;28.00
11830;BME280;5972;42.134;24.718;2022-09-09T08:02:53;99843.47;;;37.00;27.88
11830;BME280;5972;42.134;24.718;2022-09-09T08:05:20;99846.09;;;37.56;27.50
11830;BME280;5972;42.134;24.718;2022-09-09T08:07:48;99838.88;;;37.96;26.81
11830;BME280;5972;42.134;24.718;2022-09-09T08:10:16;99849.69;;;38.57;26.05
11830;BME280;5972;42.134;24.718;2022-09-09T08:12:43;99838.22;;;38.98;25.52
11830;BME280;5972;42.134;24.718;2022-09-09T08:15:11;99843.44;;;39.13;25.10
11830;BME280;5972;42.134;24.718;2022-09-09T08:17:38;99839.00;;;38.98;24.85
11830;BME280;5972;42.134;24.718;2022-09-09T08:20:05;99835.31;;;38.79;25.28
11830;BME280;5972;42.134;24.718;2022-09-09T08:22:32;99833.63;;;39.38;25.01
11830;BME280;5972;42.134;24.718;2022-09-09T08:24:59;99834.50;;;39.08;25.43
11830;BME280;5972;42.134;24.718;2022-09-09T08:27:29;99827.78;;;39.30;25.44
11830;BME280;5972;42.134;24.718;2022-09-09T08:29:57;99826.88;;;39.22;25.18
11830;BME280;5972;42.134;24.718;2022-09-09T08:32:24;99819.47;;;39.38;25.11
11830;BME280;5972;42.134;24.718;2022-09-09T08:34:51;99815.38;;;39.15;25.37
11830;BME280;5972;42.134;24.718;2022-09-09T08:37:18;99823.88;;;39.71;24.76
11830;BME280;5972;42.134;24.718;2022-09-09T08:39:45;99812.72;;;39.22;25.49
11830;BME280;5972;42.134;24.718;2022-09-09T08:45:25;99818.91;;;39.21;24.80
11830;BME280;5972;42.134;24.718;2022-09-09T08:48:11;99815.63;;;39.17;24.97
11830;BME280;5972;42.134;24.718;2022-09-09T08:50:41;99813.91;;;38.35;25.82
11830;BME280;5972;42.134;24.718;2022-09-09T08:53:11;99808.47;;;37.31;27.07
11830;BME280;5972;42.134;24.718;2022-09-09T08:55:45;99812.91;;;37.67;26.96
11830;BME280;5972;42.134;24.718;2022-09-09T08:58:16;99811.00;;;37.81;26.46
11830;BME280;5972;42.134;24.718;2022-09-09T09:00:54;99805.19;;;37.68;26.83
11830;BME280;5972;42.134;24.718;2022-09-09T09:03:33;99814.19;;;37.14;27.36
11830;BME280;5972;42.134;24.718;2022-09-09T09:06:26;99802.41;;;37.62;27.07
11830;BME280;5972;42.134;24.718;2022-09-09T09:09:07;99797.63;;;38.47;25.57
11830;BME280;5972;42.134;24.718;2022-09-09T09:11:36;99806.34;;;38.49;25.87
11830;BME280;5972;42.134;24.718;2022-09-09T09:14:09;99794.63;;;38.63;25.47
11830;BME280;5972;42.134;24.718;2022-09-09T09:16:49;99743.78;;;38.58;25.75
11830;BME280;5972;42.134;24.718;2022-09-09T09:19:17;99791.78;;;38.39;26.35
11830;BME280;5972;42.134;24.718;2022-09-09T09:21:51;99778.50;;;39.01;25.18
11830;BME280;5972;42.134;24.718;2022-09-09T09:24:25;99775.47;;;39.37;24.63
11830;BME280;5972;42.134;24.718;2022-09-09T09:26:59;99760.19;;;39.77;24.42
11830;BME280;5972;42.134;24.718;2022-09-09T09:29:31;99751.19;;;39.23;24.87
11830;BME280;5972;42.134;24.718;2022-09-09T09:32:01;99756.19;;;38.25;25.79
11830;BME280;5972;42.134;24.718;2022-09-09T09:34:29;99761.03;;;38.00;26.33
11830;BME280;5972;42.134;24.718;2022-09-09T09:36:57;99756.44;;;38.27;25.89
11830;BME280;5972;42.134;24.718;2022-09-09T09:39:29;99757.97;;;37.98;26.68
11830;BME280;5972;42.134;24.718;2022-09-09T09:41:56;99750.69;;;37.78;26.60
11830;BME280;5972;42.134;24.718;2022-09-09T09:44:29;99742.63;;;38.42;26.21
11830;BME280;5972;42.134;24.718;2022-09-09T09:47:07;99739.88;;;39.41;25.71
11830;BME280;5972;42.134;24.718;2022-09-09T09:49:34;99731.56;;;39.62;24.83
11830;BME280;5972;42.134;24.718;2022-09-09T09:52:02;99736.28;;;39.41;25.31
11830;BME280;5972;42.134;24.718;2022-09-09T09:54:32;99732.81;;;39.29;25.19
11830;BME280;5972;42.134;24.718;2022-09-09T09:57:08;99717.59;;;39.51;24.85
11830;BME280;5972;42.134;24.718;2022-09-09T09:59:36;99729.75;;;38.71;25.69
11830;BME280;5972;42.134;24.718;2022-09-09T10:02:19;99733.38;;;37.58;27.14
11830;BME280;5972;42.134;24.718;2022-09-09T10:05:00;99720.59;;;37.10;27.55
11830;BME280;5972;42.134;24.718;2022-09-09T10:07:27;99714.75;;;36.97;28.37
11830;BME280;5972;42.134;24.718;2022-09-09T10:09:56;99718.03;;;37.01;27.60
11830;BME280;5972;42.134;24.718;2022-09-09T10:12:33;99704.47;;;36.99;27.96
11830;BME280;5972;42.134;24.718;2022-09-09T10:15:09;99698.38;;;36.84;28.05
11830;BME280;5972;42.134;24.718;2022-09-09T10:17:55;99686.56;;;36.11;29.28
11830;BME280;5972;42.134;24.718;2022-09-09T10:20:32;99688.88;;;36.13;29.50
11830;BME280;5972;42.134;24.718;2022-09-09T10:23:08;99695.81;;;36.86;28.52
11830;BME280;5972;42.134;24.718;2022-09-09T10:25:49;99696.28;;;37.78;27.80
11830;BME280;5972;42.134;24.718;2022-09-09T10:28:33;99700.44;;;38.50;26.80
11830;BME280;5972;42.134;24.718;2022-09-09T10:31:16;99693.69;;;38.96;26.53
11830;BME280;5972;42.134;24.718;2022-09-09T10:33:50;99691.88;;;39.81;25.27
11830;BME280;5972;42.134;24.718;2022-09-09T10:36:20;99686.06;;;39.41;25.76
11830;BME280;5972;42.134;24.718;2022-09-09T10:38:52;99699.16;;;37.97;27.70
11830;BME280;5972;42.134;24.718;2022-09-09T10:41:35;99701.19;;;36.21;29.66
11830;BME280;5972;42.134;24.718;2022-09-09T10:44:17;99692.97;;;35.56;31.04
11830;BME280;5972;42.134;24.718;2022-09-09T10:47:06;99686.31;;;35.26;31.81
11830;BME280;5972;42.134;24.718;2022-09-09T10:49:56;99684.81;;;34.60;32.76
11830;BME280;5972;42.134;24.718;2022-09-09T10:52:31;99672.53;;;34.09;33.93
11830;BME280;5972;42.134;24.718;2022-09-09T10:55:02;99681.91;;;33.38;34.84
11830;BME280;5972;42.134;24.718;2022-09-09T10:57:37;99678.84;;;33.67;35.02
11830;BME280;5972;42.134;24.718;2022-09-09T11:00:14;99680.13;;;32.69;36.56
11830;BME280;5972;42.134;24.718;2022-09-09T11:02:42;99670.28;;;31.68;38.74
11830;BME280;5972;42.134;24.718;2022-09-09T11:05:17;99645.09;;;31.54;39.89
11830;BME280;5972;42.134;24.718;2022-09-09T11:07:48;99665.25;;;31.14;40.75
11830;BME280;5972;42.134;24.718;2022-09-09T11:10:22;99634.03;;;31.59;40.24
11830;BME280;5972;42.134;24.718;2022-09-09T11:12:54;99659.63;;;32.22;39.20
11830;BME280;5972;42.134;24.718;2022-09-09T11:15:29;99643.00;;;32.53;38.34
11830;BME280;5972;42.134;24.718;2022-09-09T11:18:00;99651.63;;;32.70;37.89
11830;BME280;5972;42.134;24.718;2022-09-09T11:20:29;99645.03;;;32.73;37.77
11830;BME280;5972;42.134;24.718;2022-09-09T11:23:00;99635.78;;;32.67;37.67
11830;BME280;5972;42.134;24.718;2022-09-09T11:25:33;99629.50;;;31.97;39.04
11830;BME280;5972;42.134;24.718;2022-09-09T11:28:23;99637.56;;;31.16;40.27
11830;BME280;5972;42.134;24.718;2022-09-09T11:31:04;99618.94;;;30.98;41.59
11830;BME280;5972;42.134;24.718;2022-09-09T11:33:55;99625.53;;;31.54;40.44
11830;BME280;5972;42.134;24.718;2022-09-09T11:36:47;99623.00;;;31.56;40.31
11830;BME280;5972;42.134;24.718;2022-09-09T11:39:37;99612.59;;;31.27;40.88
11830;BME280;5972;42.134;24.718;2022-09-09T11:42:16;99625.31;;;31.72;39.88
11830;BME280;5972;42.134;24.718;2022-09-09T11:44:44;99620.19;;;32.05;39.15
11830;BME280;5972;42.134;24.718;2022-09-09T11:47:20;99616.84;;;32.22;39.39
11830;BME280;5972;42.134;24.718;2022-09-09T11:49:49;99622.75;;;32.24;39.59
11830;BME280;5972;42.134;24.718;2022-09-09T11:52:23;99626.25;;;32.39;39.17
11830;BME280;5972;42.134;24.718;2022-09-09T11:54:54;99611.25;;;32.82;37.90
11830;BME280;5972;42.134;24.718;2022-09-09T11:57:25;99602.84;;;33.39;36.87
11830;BME280;5972;42.134;24.718;2022-09-09T11:59:53;99611.28;;;33.39;36.88
11830;BME280;5972;42.134;24.718;2022-09-09T12:02:24;99600.31;;;32.84;36.78
11830;BME280;5972;42.134;24.718;2022-09-09T12:04:56;99603.47;;;32.72;37.30
11830;BME280;5972;42.134;24.718;2022-09-09T12:07:33;99603.84;;;32.39;38.40
11830;BME280;5972;42.134;24.718;2022-09-09T12:10:05;99590.16;;;32.06;39.13
11830;BME280;5972;42.134;24.718;2022-09-09T12:12:44;99593.09;;;32.32;38.77
11830;BME280;5972;42.134;24.718;2022-09-09T12:15:24;99583.56;;;31.89;38.98
11830;BME280;5972;42.134;24.718;2022-09-09T12:17:55;99584.47;;;32.15;39.59
11830;BME280;5972;42.134;24.718;2022-09-09T12:20:23;99580.50;;;32.07;39.61
11830;BME280;5972;42.134;24.718;2022-09-09T12:23:09;99584.41;;;31.74;40.24
11830;BME280;5972;42.134;24.718;2022-09-09T12:25:58;99575.06;;;31.63;40.41
11830;BME280;5972;42.134;24.718;2022-09-09T12:28:39;99568.81;;;31.88;40.08
11830;BME280;5972;42.134;24.718;2022-09-09T12:31:12;99563.56;;;31.75;40.85
11830;BME280;5972;42.134;24.718;2022-09-09T12:33:44;99561.31;;;31.79;40.05
11830;BME280;5972;42.134;24.718;2022-09-09T12:36:15;99561.88;;;31.49;41.19
11830;BME280;5972;42.134;24.718;2022-09-09T12:38:46;99559.91;;;31.20;42.23
11830;BME280;5972;42.134;24.718;2022-09-09T12:41:19;99561.22;;;31.24;41.98
11830;BME280;5972;42.134;24.718;2022-09-09T12:43:46;99564.84;;;31.45;41.51
11830;BME280;5972;42.134;24.718;2022-09-09T12:46:21;99558.31;;;31.48;41.96
11830;BME280;5972;42.134;24.718;2022-09-09T12:48:52;99550.31;;;31.41;41.32
11830;BME280;5972;42.134;24.718;2022-09-09T12:51:25;99540.03;;;31.67;40.46
11830;BME280;5972;42.134;24.718;2022-09-09T12:53:55;99550.97;;;32.06;40.17
11830;BME280;5972;42.134;24.718;2022-09-09T12:56:24;99546.94;;;32.27;40.01
11830;BME280;5972;42.134;24.718;2022-09-09T12:58:54;99535.00;;;32.52;39.28
11830;BME280;5972;42.134;24.718;2022-09-09T13:01:24;99531.44;;;32.78;38.43
11830;BME280;5972;42.134;24.718;2022-09-09T13:03:52;99527.53;;;32.95;38.21
11830;BME280;5972;42.134;24.718;2022-09-09T13:06:21;99529.59;;;33.26;37.70
11830;BME280;5972;42.134;24.718;2022-09-09T13:08:59;99528.97;;;32.85;38.06
11830;BME280;5972;42.134;24.718;2022-09-09T13:11:29;99537.81;;;32.78;38.41
11830;BME280;5972;42.134;24.718;2022-09-09T13:13:57;99528.41;;;32.55;38.82
11830;BME280;5972;42.134;24.718;2022-09-09T13:16:26;99525.66;;;32.61;38.54
11830;BME280;5972;42.134;24.718;2022-09-09T13:18:57;99511.16;;;32.88;38.47
11830;BME280;5972;42.134;24.718;2022-09-09T13:21:33;99514.44;;;32.81;37.91